Time;durP1;ratioP1;P1;durP2;ratioP2;P2;SDS_P1;SDS_P2;PMS_P1;PMS_P2;Temp;Humidity;BMP_temperature;BMP_pressure;BME280_temperature;BME280_humidity;BME280_pressure;Samples;Min_cycle;Max_cycle;Signal;HPM_P1;HPM_P2
2022/09/17 00:01:48;;;;;;;;;;;;;;;15.76;77.17;99572.06;5312826;32;33832;-72
2022/09/17 00:04:50;;;;;;;;;;;;;;;16.06;75.91;99568.13;5337610;32;33108;-68
2022/09/17 00:07:52;;;;;;;;;;;;;;;15.93;75.59;99579.63;5323579;32;34758;-70
2022/09/17 00:10:54;;;;;;;;;;;;;;;15.80;75.87;99573.56;5338006;32;33400;-70
2022/09/17 00:13:57;;;;;;;;;;;;;;;15.73;75.08;99574.13;5309000;32;34096;-68
2022/09/17 00:16:59;;;;;;;;;;;;;;;15.80;72.99;99581.50;5318105;32;34422;-71
2022/09/17 00:20:03;;;;;;;;;;;;;;;16.00;72.87;99590.63;5309052;32;34242;-71
2022/09/17 00:23:05;;;;;;;;;;;;;;;15.81;73.26;99579.69;5320847;32;33638;-67
2022/09/17 00:26:07;;;;;;;;;;;;;;;15.41;73.17;99593.16;5325152;32;32941;-67
2022/09/17 00:29:09;;;;;;;;;;;;;;;15.59;72.90;99589.19;5326119;32;33762;-67
2022/09/17 00:32:10;;;;;;;;;;;;;;;16.18;72.31;99577.81;5342980;32;33629;-67
2022/09/17 00:35:12;;;;;;;;;;;;;;;16.25;71.53;99571.94;5324121;32;34068;-67
2022/09/17 00:38:14;;;;;;;;;;;;;;;16.27;71.62;99573.63;5340737;32;44488;-70
2022/09/17 00:41:16;;;;;;;;;;;;;;;16.38;72.57;99565.69;5326346;32;33641;-67
2022/09/17 00:44:37;;;;;;;;;;;;;;;16.93;69.44;99561.47;5311954;32;33569;-68
2022/09/17 00:47:44;;;;;;;;;;;;;;;16.49;70.88;99565.75;5341965;32;33705;-72
2022/09/17 00:50:46;;;;;;;;;;;;;;;15.93;73.07;99547.00;5310834;32;44674;-71
2022/09/17 00:53:48;;;;;;;;;;;;;;;17.53;67.00;99539.81;5341437;32;33284;-72
2022/09/17 00:56:50;;;;;;;;;;;;;;;16.85;67.35;99545.31;5312097;32;34140;-69
2022/09/17 00:59:52;;;;;;;;;;;;;;;17.20;66.79;99535.41;5318816;32;33720;-67
2022/09/17 01:02:53;;;;;;;;;;;;;;;17.53;65.98;99534.50;5334290;32;33624;-68
2022/09/17 01:06:08;;;;;;;;;;;;;;;16.77;67.95;99543.25;5322076;32;34445;-71
2022/09/17 01:09:16;;;;;;;;;;;;;;;17.15;66.79;99534.09;5326228;32;32669;-67
2022/09/17 01:12:37;;;;;;;;;;;;;;;16.14;71.93;99542.72;5325452;32;48217;-71
2022/09/17 01:15:47;;;;;;;;;;;;;;;17.13;68.00;99523.59;5314122;32;33167;-71
2022/09/17 01:19:10;;;;;;;;;;;;;;;16.82;68.77;99526.97;5308678;32;45315;-69
2022/09/17 01:22:15;;;;;;;;;;;;;;;16.70;68.44;99526.97;5307929;32;32939;-71
2022/09/17 01:25:25;;;;;;;;;;;;;;;17.40;66.28;99532.97;5337084;32;44541;-68
2022/09/17 01:28:32;;;;;;;;;;;;;;;16.29;68.57;99538.06;5322643;32;33888;-71
2022/09/17 01:31:37;;;;;;;;;;;;;;;16.14;70.56;99537.44;5334946;32;33047;-71
2022/09/17 01:34:42;;;;;;;;;;;;;;;16.55;67.11;99544.06;5332716;32;33875;-71
2022/09/17 01:38:02;;;;;;;;;;;;;;;16.06;70.02;99550.41;5325300;32;43535;-68
2022/09/17 01:41:10;;;;;;;;;;;;;;;16.61;67.71;99548.84;5340264;32;33540;-68
2022/09/17 01:44:14;;;;;;;;;;;;;;;16.25;68.25;99550.72;5324496;32;34243;-69
2022/09/17 01:47:18;;;;;;;;;;;;;;;16.14;69.15;99569.22;5325767;32;45554;-68
2022/09/17 01:50:26;;;;;;;;;;;;;;;16.17;68.32;99569.03;5327032;32;33937;-68
2022/09/17 01:53:30;;;;;;;;;;;;;;;15.31;70.69;99582.34;5310293;32;33195;-71
2022/09/17 01:56:39;;;;;;;;;;;;;;;15.93;68.96;99565.53;5327788;32;33704;-67
2022/09/17 01:59:42;;;;;;;;;;;;;;;15.41;71.63;99585.22;5323418;32;32805;-67
2022/09/17 02:02:44;;;;;;;;;;;;;;;15.25;70.40;99569.56;5326861;32;44429;-71
2022/09/17 02:05:53;;;;;;;;;;;;;;;16.00;68.44;99572.06;5325110;32;34082;-71
2022/09/17 02:09:04;;;;;;;;;;;;;;;16.13;66.86;99570.19;5327981;32;33925;-67
2022/09/17 02:12:08;;;;;;;;;;;;;;;15.42;70.72;99560.41;5341619;32;32873;-71
2022/09/17 02:15:11;;;;;;;;;;;;;;;16.66;65.97;99562.62;5309346;32;33435;-70
2022/09/17 02:18:22;;;;;;;;;;;;;;;16.73;64.04;99561.19;5334323;32;33907;-71
2022/09/17 02:21:29;;;;;;;;;;;;;;;16.25;66.34;99550.72;5323799;32;36332;-68
2022/09/17 02:24:31;;;;;;;;;;;;;;;16.51;65.09;99555.84;5331325;32;33567;-70
2022/09/17 02:27:36;;;;;;;;;;;;;;;16.36;65.66;99547.25;5329682;32;33386;-70
2022/09/17 02:30:38;;;;;;;;;;;;;;;16.43;66.00;99542.34;5322082;32;33564;-67
2022/09/17 02:33:40;;;;;;;;;;;;;;;15.84;66.58;99535.28;5339270;32;33297;-72
2022/09/17 02:36:42;;;;;;;;;;;;;;;16.36;66.01;99546.38;5324999;32;33776;-71
2022/09/17 02:39:44;;;;;;;;;;;;;;;15.80;65.86;99549.72;5325622;32;43344;-67
2022/09/17 02:43:05;;;;;;;;;;;;;;;14.46;70.65;99538.06;5311198;32;34419;-67
2022/09/17 02:46:28;;;;;;;;;;;;;;;14.94;69.41;99535.63;5307759;32;32783;-72
2022/09/17 02:49:39;;;;;;;;;;;;;;;15.01;68.56;99529.81;5325764;32;33515;-68
2022/09/17 02:52:41;;;;;;;;;;;;;;;14.88;69.49;99523.72;5323112;32;33521;-68
2022/09/17 02:55:46;;;;;;;;;;;;;;;15.17;68.86;99517.16;5340857;32;32771;-69
2022/09/17 02:58:53;;;;;;;;;;;;;;;15.78;66.59;99514.53;5323211;32;44669;-68
2022/09/17 03:02:01;;;;;;;;;;;;;;;15.97;64.28;99506.91;5328836;32;33242;-68
2022/09/17 03:05:04;;;;;;;;;;;;;;;14.65;68.36;99506.78;5338982;32;34280;-68
2022/09/17 03:08:06;;;;;;;;;;;;;;;15.11;67.28;99499.09;5310311;32;32876;-71
2022/09/17 03:11:09;;;;;;;;;;;;;;;15.34;66.09;99501.88;5327062;32;34006;-67
2022/09/17 03:14:11;;;;;;;;;;;;;;;14.84;68.02;99501.06;5314856;32;33671;-67
2022/09/17 03:17:13;;;;;;;;;;;;;;;15.15;67.40;99497.06;5324969;32;35693;-68
2022/09/17 03:20:15;;;;;;;;;;;;;;;15.16;67.25;99488.19;5324483;32;45351;-68
2022/09/17 03:23:17;;;;;;;;;;;;;;;15.15;67.56;99466.16;5320960;32;33273;-72
2022/09/17 03:26:19;;;;;;;;;;;;;;;15.62;64.69;99463.66;5338862;32;33704;-67
2022/09/17 03:29:21;;;;;;;;;;;;;;;14.91;68.39;99449.41;5322254;32;33214;-67
2022/09/17 03:32:22;;;;;;;;;;;;;;;14.08;70.93;99435.81;5339955;32;34061;-71
2022/09/17 03:35:24;;;;;;;;;;;;;;;14.50;68.88;99417.97;5324751;32;34073;-68
2022/09/17 03:38:26;;;;;;;;;;;;;;;14.49;70.48;99422.41;5324285;32;34134;-68
2022/09/17 03:41:28;;;;;;;;;;;;;;;14.96;67.68;99415.53;5323717;32;32966;-72
2022/09/17 03:44:30;;;;;;;;;;;;;;;14.96;67.67;99410.22;5322240;32;33727;-72
2022/09/17 03:47:31;;;;;;;;;;;;;;;15.24;66.29;99406.41;5339784;32;33233;-71
2022/09/17 03:50:33;;;;;;;;;;;;;;;15.65;65.42;99400.72;5322437;32;33826;-71
2022/09/17 03:53:35;;;;;;;;;;;;;;;15.49;65.14;99413.38;5337029;32;33167;-72
2022/09/17 03:56:37;;;;;;;;;;;;;;;15.25;65.16;99416.03;5323730;32;33821;-72
2022/09/17 03:59:39;;;;;;;;;;;;;;;15.15;65.50;99415.88;5337759;32;33876;-68
2022/09/17 04:02:41;;;;;;;;;;;;;;;15.01;66.38;99418.69;5326151;32;33072;-71
2022/09/17 04:05:43;;;;;;;;;;;;;;;15.72;63.15;99416.97;5323304;32;36377;-70
2022/09/17 04:08:45;;;;;;;;;;;;;;;14.99;65.35;99431.16;5339018;32;34208;-71
2022/09/17 04:11:47;;;;;;;;;;;;;;;14.67;65.36;99429.97;5311720;32;33111;-68
2022/09/17 04:14:49;;;;;;;;;;;;;;;14.91;65.56;99430.88;5327893;32;34069;-68
2022/09/17 04:17:54;;;;;;;;;;;;;;;14.11;67.89;99432.97;5314895;32;32952;-68
2022/09/17 04:20:55;;;;;;;;;;;;;;;14.61;65.68;99450.63;5326983;32;33778;-71
2022/09/17 04:23:58;;;;;;;;;;;;;;;13.99;68.62;99434.66;5320142;32;34040;-68
2022/09/17 04:26:59;;;;;;;;;;;;;;;14.08;68.24;99428.72;5325530;32;33583;-72
2022/09/17 04:30:01;;;;;;;;;;;;;;;14.29;67.73;99421.13;5341782;32;34251;-71
2022/09/17 04:33:03;;;;;;;;;;;;;;;14.46;66.97;99429.69;5324347;32;33981;-72
2022/09/17 04:36:05;;;;;;;;;;;;;;;14.27;68.55;99423.03;5340719;32;33611;-68
2022/09/17 04:39:07;;;;;;;;;;;;;;;14.36;67.85;99419.75;5324397;32;33816;-68
2022/09/17 04:42:09;;;;;;;;;;;;;;;14.12;68.50;99425.91;5325542;32;32834;-68
2022/09/17 04:45:11;;;;;;;;;;;;;;;14.21;68.94;99417.31;5325828;32;34171;-67
2022/09/17 04:48:13;;;;;;;;;;;;;;;14.06;69.44;99414.78;5323220;32;33317;-71
2022/09/17 04:51:15;;;;;;;;;;;;;;;13.81;70.48;99417.41;5341013;32;45788;-71
2022/09/17 04:54:17;;;;;;;;;;;;;;;14.14;70.29;99405.50;5325376;32;34001;-67
2022/09/17 04:57:19;;;;;;;;;;;;;;;13.45;71.97;99416.28;5340374;32;34111;-67
2022/09/17 05:00:21;;;;;;;;;;;;;;;14.04;70.08;99415.88;5324528;32;33628;-71
2022/09/17 05:03:23;;;;;;;;;;;;;;;15.27;65.92;99415.94;5338205;32;33164;-68
2022/09/17 05:06:25;;;;;;;;;;;;;;;15.13;65.29;99415.16;5324826;32;34117;-70
2022/09/17 05:09:27;;;;;;;;;;;;;;;14.01;69.10;99416.91;5323814;32;33658;-72
2022/09/17 05:12:28;;;;;;;;;;;;;;;14.31;67.36;99406.00;5340132;32;33086;-69
2022/09/17 05:15:35;;;;;;;;;;;;;;;14.23;68.56;99421.56;5306280;32;33322;-72
2022/09/17 05:18:36;;;;;;;;;;;;;;;14.69;66.31;99418.38;5337700;32;33559;-69
2022/09/17 05:21:38;;;;;;;;;;;;;;;14.01;68.86;99432.75;5323382;32;33222;-71
2022/09/17 05:24:40;;;;;;;;;;;;;;;14.65;66.94;99435.38;5335302;32;33968;-68
2022/09/17 05:27:42;;;;;;;;;;;;;;;14.18;67.51;99433.41;5314916;32;34517;-72
2022/09/17 05:30:44;;;;;;;;;;;;;;;14.31;67.45;99439.53;5324309;32;44685;-71
2022/09/17 05:33:46;;;;;;;;;;;;;;;15.57;62.47;99426.03;5340848;32;33424;-71
2022/09/17 05:36:48;;;;;;;;;;;;;;;15.23;63.67;99433.00;5323993;32;34429;-68
2022/09/17 05:39:51;;;;;;;;;;;;;;;15.37;62.59;99438.09;5341758;32;33272;-71
2022/09/17 05:43:03;;;;;;;;;;;;;;;15.25;62.48;99441.66;5323176;32;33060;-72
2022/09/17 05:46:05;;;;;;;;;;;;;;;14.82;63.64;99444.78;5318600;32;33148;-71
2022/09/17 05:49:07;;;;;;;;;;;;;;;15.26;63.18;99453.94;5321072;32;33661;-68
2022/09/17 05:52:09;;;;;;;;;;;;;;;14.87;63.22;99464.62;5323271;32;32913;-67
2022/09/17 05:55:11;;;;;;;;;;;;;;;15.02;63.46;99462.72;5341521;32;34101;-70
2022/09/17 05:58:13;;;;;;;;;;;;;;;15.90;60.65;99465.06;5323153;32;33392;-71
2022/09/17 06:01:15;;;;;;;;;;;;;;;16.16;59.65;99466.56;5340717;32;45384;-72
2022/09/17 06:04:17;;;;;;;;;;;;;;;16.16;59.84;99457.78;5324244;32;33652;-68
2022/09/17 06:07:19;;;;;;;;;;;;;;;15.42;61.24;99470.41;5332143;32;33299;-68
2022/09/17 06:10:21;;;;;;;;;;;;;;;15.32;61.59;99472.00;5335199;32;33842;-67
2022/09/17 06:13:23;;;;;;;;;;;;;;;16.14;58.80;99476.47;5311276;32;33720;-71
2022/09/17 06:16:25;;;;;;;;;;;;;;;15.89;59.83;99484.56;5303062;32;33846;-72
2022/09/17 06:19:27;;;;;;;;;;;;;;;16.26;58.81;99477.31;5310667;32;34266;-68
2022/09/17 06:22:30;;;;;;;;;;;;;;;16.05;58.39;99463.91;5335739;32;33819;-69
2022/09/17 06:25:32;;;;;;;;;;;;;;;15.72;58.43;99446.13;5321178;32;34628;-72
2022/09/17 06:28:33;;;;;;;;;;;;;;;15.42;60.24;99451.84;5330274;32;33305;-71
2022/09/17 06:31:44;;;;;;;;;;;;;;;15.58;59.43;99454.19;5337563;32;33640;-71
2022/09/17 06:34:47;;;;;;;;;;;;;;;15.21;60.96;99461.38;5312334;32;44499;-67
2022/09/17 06:37:49;;;;;;;;;;;;;;;15.32;60.40;99480.78;5339345;32;33629;-72
2022/09/17 06:40:51;;;;;;;;;;;;;;;15.49;59.47;99473.44;5324971;32;33675;-72
2022/09/17 06:43:53;;;;;;;;;;;;;;;14.54;63.80;99478.44;5326952;32;33683;-72
2022/09/17 06:46:55;;;;;;;;;;;;;;;15.74;59.56;99475.97;5322838;32;33079;-72
2022/09/17 06:49:58;;;;;;;;;;;;;;;16.23;58.17;99482.87;5324415;32;33594;-68
2022/09/17 06:53:00;;;;;;;;;;;;;;;15.85;59.13;99483.97;5338773;32;33045;-70
2022/09/17 06:56:02;;;;;;;;;;;;;;;16.24;57.98;99477.44;5325517;32;33400;-72
2022/09/17 06:59:07;;;;;;;;;;;;;;;16.56;57.00;99490.03;5327564;32;34909;-72
2022/09/17 07:02:09;;;;;;;;;;;;;;;15.82;57.98;99501.91;5323577;32;32552;-68
2022/09/17 07:05:11;;;;;;;;;;;;;;;15.86;58.46;99500.72;5339595;32;33311;-68
2022/09/17 07:08:13;;;;;;;;;;;;;;;15.31;59.63;99500.28;5325756;32;33176;-72
2022/09/17 07:11:15;;;;;;;;;;;;;;;15.21;59.80;99494.00;5322315;32;45110;-72
2022/09/17 07:14:18;;;;;;;;;;;;;;;14.66;61.96;99491.78;5331617;32;33326;-68
2022/09/17 07:17:20;;;;;;;;;;;;;;;15.18;60.17;99487.09;5294825;32;33488;-71
2022/09/17 07:20:21;;;;;;;;;;;;;;;14.76;61.87;99508.69;5338837;32;33664;-68
2022/09/17 07:23:24;;;;;;;;;;;;;;;15.04;61.52;99511.06;5319636;32;34447;-67
2022/09/17 07:26:26;;;;;;;;;;;;;;;14.72;61.88;99499.28;5322597;32;33894;-74
2022/09/17 07:29:27;;;;;;;;;;;;;;;15.72;58.95;99482.37;5311601;32;33745;-70
2022/09/17 07:32:30;;;;;;;;;;;;;;;15.79;58.82;99491.53;5323375;32;33507;-73
2022/09/17 07:35:32;;;;;;;;;;;;;;;16.05;57.81;99495.72;5341573;32;34234;-69
2022/09/17 07:38:34;;;;;;;;;;;;;;;15.52;58.73;99489.94;5324746;32;33626;-69
2022/09/17 07:41:35;;;;;;;;;;;;;;;16.24;56.40;99489.87;5341325;32;33688;-72
2022/09/17 07:44:37;;;;;;;;;;;;;;;16.65;54.90;99491.94;5323910;32;33359;-71
2022/09/17 07:47:39;;;;;;;;;;;;;;;16.99;54.12;99498.13;5326284;32;32839;-69
2022/09/17 07:50:41;;;;;;;;;;;;;;;16.17;55.21;99497.44;5326812;32;33950;-68
2022/09/17 07:53:43;;;;;;;;;;;;;;;16.21;55.63;99511.28;5326463;32;33684;-68
2022/09/17 07:56:45;;;;;;;;;;;;;;;16.16;56.34;99511.63;5326562;32;44933;-69
2022/09/17 07:59:47;;;;;;;;;;;;;;;16.33;55.75;99509.53;5312894;32;33106;-68
2022/09/17 08:02:53;;;;;;;;;;;;;;;16.38;55.06;99504.72;5327461;32;33450;-73
2022/09/17 08:06:02;;;;;;;;;;;;;;;16.52;54.99;99497.37;5323383;32;34128;-68
2022/09/17 08:09:05;;;;;;;;;;;;;;;15.69;57.23;99499.31;5336339;32;33442;-68
2022/09/17 08:12:07;;;;;;;;;;;;;;;16.18;55.74;99501.78;5331260;32;34017;-68
2022/09/17 08:15:09;;;;;;;;;;;;;;;16.27;55.18;99510.00;5310949;32;32867;-68
2022/09/17 08:18:11;;;;;;;;;;;;;;;16.20;53.37;99528.16;5335476;32;34191;-68
2022/09/17 08:21:14;;;;;;;;;;;;;;;16.82;52.26;99533.12;5309563;32;34044;-68
2022/09/17 08:24:16;;;;;;;;;;;;;;;17.35;51.50;99532.47;5338336;32;44725;-68
2022/09/17 08:27:18;;;;;;;;;;;;;;;17.10;52.03;99525.62;5325511;32;33712;-68
2022/09/17 08:30:20;;;;;;;;;;;;;;;17.55;51.06;99529.03;5334058;32;34371;-70
2022/09/17 08:33:22;;;;;;;;;;;;;;;16.76;52.69;99526.50;5319857;32;33612;-72
2022/09/17 08:36:25;;;;;;;;;;;;;;;16.61;53.37;99526.78;5323598;32;33481;-71
2022/09/17 08:39:27;;;;;;;;;;;;;;;17.47;50.92;99511.06;5328611;32;33466;-69
2022/09/17 08:42:36;;;;;;;;;;;;;;;16.66;52.29;99514.03;5324452;32;33547;-70
2022/09/17 08:45:38;;;;;;;;;;;;;;;17.08;52.09;99520.44;5325250;32;34320;-69
2022/09/17 08:48:41;;;;;;;;;;;;;;;16.61;53.04;99535.59;5326010;32;33439;-71
2022/09/17 08:52:00;;;;;;;;;;;;;;;16.26;54.52;99530.34;5327781;32;33013;-69
2022/09/17 08:55:10;;;;;;;;;;;;;;;16.27;54.90;99521.44;5340325;32;34038;-71
2022/09/17 08:58:32;;;;;;;;;;;;;;;16.05;55.99;99513.44;5324108;32;33037;-72
2022/09/17 09:01:34;;;;;;;;;;;;;;;16.39;55.20;99509.88;5340354;32;33254;-73
2022/09/17 09:04:53;;;;;;;;;;;;;;;16.78;54.69;99516.59;5324055;32;33341;-69
2022/09/17 09:07:57;;;;;;;;;;;;;;;16.52;55.33;99515.09;5322027;32;33677;-69
2022/09/17 09:10:59;;;;;;;;;;;;;;;16.39;55.50;99517.84;5338850;32;33627;-72
2022/09/17 09:14:04;;;;;;;;;;;;;;;16.53;55.50;99532.69;5320511;32;33500;-68
2022/09/17 09:17:07;;;;;;;;;;;;;;;16.15;56.08;99532.97;5323588;32;33549;-72
2022/09/17 09:20:24;;;;;;;;;;;;;;;17.14;53.21;99530.59;5309190;32;33720;-69
2022/09/17 09:23:29;;;;;;;;;;;;;;;16.62;54.36;99539.97;5313187;32;33312;-71
2022/09/17 09:26:34;;;;;;;;;;;;;;;16.31;55.31;99535.31;5319740;32;34062;-69
2022/09/17 09:29:36;;;;;;;;;;;;;;;15.98;56.53;99526.31;5324025;32;33860;-72
2022/09/17 09:32:51;;;;;;;;;;;;;;;16.17;55.84;99531.06;5341525;32;33988;-67
2022/09/17 09:35:52;;;;;;;;;;;;;;;16.09;56.30;99534.28;5308816;32;44902;-68
2022/09/17 09:38:55;;;;;;;;;;;;;;;15.98;56.51;99532.44;5340875;32;33479;-69
2022/09/17 09:41:58;;;;;;;;;;;;;;;16.59;53.73;99521.59;5326432;32;34478;-68
2022/09/17 09:45:29;;;;;;;;;;;;;;;16.76;54.40;99521.19;5310367;32;33084;-68
2022/09/17 09:48:34;;;;;;;;;;;;;;;16.23;54.95;99526.13;5323671;32;35983;-68
2022/09/17 09:52:03;;;;;;;;;;;;;;;17.09;53.76;99534.56;5322591;32;33192;-68
2022/09/17 09:55:11;;;;;;;;;;;;;;;16.46;55.21;99545.59;5332329;32;33367;-69
2022/09/17 09:58:15;;;;;;;;;;;;;;;15.79;56.72;99528.63;5333568;32;33843;-71
2022/09/17 10:01:19;;;;;;;;;;;;;;;16.57;55.42;99539.47;5321937;32;44636;-72
2022/09/17 10:04:22;;;;;;;;;;;;;;;16.14;55.67;99542.72;5340813;32;34198;-71
2022/09/17 10:07:24;;;;;;;;;;;;;;;15.87;57.41;99552.75;5311185;32;34196;-72
2022/09/17 10:10:26;;;;;;;;;;;;;;;15.86;57.03;99548.41;5340269;32;34048;-68
2022/09/17 10:13:29;;;;;;;;;;;;;;;16.84;53.03;99540.97;5324293;32;33445;-68
2022/09/17 10:16:34;;;;;;;;;;;;;;;16.21;54.77;99529.84;5291245;32;34065;-69
2022/09/17 10:19:36;;;;;;;;;;;;;;;16.20;55.50;99513.09;5337929;32;34084;-69
2022/09/17 10:22:42;;;;;;;;;;;;;;;16.69;54.83;99511.13;5320754;32;33328;-71
2022/09/17 10:25:44;;;;;;;;;;;;;;;16.60;53.03;99511.84;5337550;32;44975;-73
2022/09/17 10:28:48;;;;;;;;;;;;;;;15.58;55.74;99509.81;5312748;32;33623;-68
2022/09/17 10:31:51;;;;;;;;;;;;;;;17.00;51.77;99491.00;5327326;32;33590;-68
2022/09/17 10:35:17;;;;;;;;;;;;;;;15.82;54.41;99481.53;5324104;32;33746;-70
2022/09/17 10:38:29;;;;;;;;;;;;;;;15.95;54.40;99463.75;5316641;32;45786;-70
2022/09/17 10:41:31;;;;;;;;;;;;;;;16.81;51.44;99454.50;5340577;32;33748;-68
2022/09/17 10:44:33;;;;;;;;;;;;;;;16.92;50.77;99481.00;5308373;32;34820;-69
2022/09/17 10:47:35;;;;;;;;;;;;;;;16.15;52.11;99502.00;5327578;32;33034;-73
2022/09/17 10:50:37;;;;;;;;;;;;;;;15.97;52.50;99492.78;5308316;32;33400;-72
2022/09/17 10:53:54;;;;;;;;;;;;;;;16.27;51.35;99488.78;5313829;32;33958;-71
2022/09/17 10:56:56;;;;;;;;;;;;;;;16.59;50.56;99467.72;5340413;32;33658;-68
2022/09/17 11:00:04;;;;;;;;;;;;;;;16.62;49.39;99441.81;5310057;32;33005;-72
2022/09/17 11:03:25;;;;;;;;;;;;;;;16.45;50.04;99445.78;5326334;32;33885;-71
2022/09/17 11:06:30;;;;;;;;;;;;;;;15.92;50.87;99404.88;5310452;32;34150;-72
2022/09/17 11:09:36;;;;;;;;;;;;;;;16.48;49.17;99395.12;5327439;32;33360;-74
2022/09/17 11:12:44;;;;;;;;;;;;;;;16.39;48.54;99417.06;5339410;32;34740;-72
2022/09/17 11:15:46;;;;;;;;;;;;;;;17.20;46.95;99428.34;5299757;32;46485;-68
2022/09/17 11:19:00;;;;;;;;;;;;;;;16.52;48.05;99475.31;5337838;32;33688;-72
2022/09/17 11:22:09;;;;;;;;;;;;;;;15.51;50.52;99448.50;5321744;32;33468;-69
2022/09/17 11:25:27;;;;;;;;;;;;;;;16.52;48.20;99423.09;5327916;32;33911;-73
2022/09/17 11:28:32;;;;;;;;;;;;;;;16.76;47.26;99430.97;5335252;32;34161;-68
2022/09/17 11:31:52;;;;;;;;;;;;;;;16.24;47.32;99463.34;5323462;32;33971;-72
2022/09/17 11:34:54;;;;;;;;;;;;;;;15.63;49.03;99478.56;5338696;32;33679;-71
2022/09/17 11:38:15;;;;;;;;;;;;;;;15.50;49.52;99465.38;5322384;32;33202;-68
2022/09/17 11:41:21;;;;;;;;;;;;;;;16.08;47.13;99457.53;5327902;32;44609;-71
2022/09/17 11:44:24;;;;;;;;;;;;;;;16.21;47.34;99445.84;5322207;32;34187;-68
2022/09/17 11:47:36;;;;;;;;;;;;;;;16.15;47.03;99448.97;5322155;32;34113;-72
2022/09/17 11:50:42;;;;;;;;;;;;;;;15.44;48.44;99444.63;5324171;32;33695;-73
2022/09/17 11:53:58;;;;;;;;;;;;;;;15.52;48.00;99447.59;5307959;32;46299;-69
2022/09/17 11:57:04;;;;;;;;;;;;;;;16.16;46.02;99437.41;5319177;32;33634;-72
2022/09/17 12:00:17;;;;;;;;;;;;;;;15.20;49.06;99418.19;5333125;32;33904;-69
2022/09/17 12:03:25;;;;;;;;;;;;;;;15.48;48.53;99408.19;5307130;32;44592;-68
2022/09/17 12:06:35;;;;;;;;;;;;;;;16.08;47.57;99389.47;5326455;32;33958;-68
2022/09/17 12:09:37;;;;;;;;;;;;;;;16.09;46.97;99363.78;5306994;32;33516;-68
2022/09/17 12:12:39;;;;;;;;;;;;;;;16.45;46.18;99339.69;5324062;32;33256;-71
2022/09/17 12:15:51;;;;;;;;;;;;;;;16.21;46.49;99346.94;5291867;32;45418;-72
2022/09/17 12:19:08;;;;;;;;;;;;;;;15.78;47.09;99358.25;5321795;32;34154;-72
2022/09/17 12:22:18;;;;;;;;;;;;;;;15.76;47.56;99361.94;5326497;32;33284;-73
2022/09/17 12:25:20;;;;;;;;;;;;;;;15.97;47.48;99357.62;5308718;32;46859;-69
2022/09/17 12:28:29;;;;;;;;;;;;;;;16.18;47.18;99349.84;5341268;32;33142;-73
2022/09/17 12:31:39;;;;;;;;;;;;;;;15.75;48.25;99342.56;5326888;32;34393;-71
2022/09/17 12:34:52;;;;;;;;;;;;;;;15.56;48.38;99329.00;5323258;32;34225;-69
2022/09/17 12:38:09;;;;;;;;;;;;;;;16.36;47.52;99313.03;5342211;32;34777;-73
2022/09/17 12:41:23;;;;;;;;;;;;;;;16.02;47.20;99320.19;5325319;32;33702;-68
2022/09/17 12:44:28;;;;;;;;;;;;;;;16.03;47.73;99325.34;5338998;32;34650;-68
2022/09/17 12:47:45;;;;;;;;;;;;;;;15.45;49.15;99321.88;5327788;32;34442;-68
2022/09/17 12:50:50;;;;;;;;;;;;;;;16.08;48.39;99306.44;5323676;32;44271;-68
2022/09/17 12:54:01;;;;;;;;;;;;;;;16.13;48.08;99296.34;5327608;32;33429;-69
2022/09/17 12:57:06;;;;;;;;;;;;;;;16.91;46.45;99311.25;5324431;32;33242;-72
2022/09/17 13:00:12;;;;;;;;;;;;;;;17.38;46.05;99322.41;5341264;32;32858;-73
2022/09/17 13:03:19;;;;;;;;;;;;;;;15.88;49.55;99334.50;5309406;32;46140;-68
2022/09/17 13:06:27;;;;;;;;;;;;;;;15.87;49.44;99330.19;5310811;32;33493;-70
2022/09/17 13:09:29;;;;;;;;;;;;;;;16.81;47.61;99334.22;5340223;32;33929;-71
2022/09/17 13:12:49;;;;;;;;;;;;;;;16.40;48.58;99351.63;5325216;32;33683;-69
2022/09/17 13:15:51;;;;;;;;;;;;;;;16.58;48.44;99338.72;5303638;32;44930;-73
2022/09/17 13:18:53;;;;;;;;;;;;;;;16.34;49.13;99331.72;5324278;32;33568;-68
2022/09/17 13:22:16;;;;;;;;;;;;;;;15.89;50.32;99304.41;5321295;32;45554;-68
2022/09/17 13:25:18;;;;;;;;;;;;;;;15.42;51.46;99308.88;5324750;32;33009;-69
2022/09/17 13:28:20;;;;;;;;;;;;;;;15.19;51.92;99323.84;5321361;32;34222;-72
2022/09/17 13:31:43;;;;;;;;;;;;;;;16.17;49.86;99316.34;5342262;32;33426;-69
2022/09/17 13:34:45;;;;;;;;;;;;;;;15.53;51.89;99322.16;5323271;32;44478;-72
2022/09/17 13:37:56;;;;;;;;;;;;;;;15.44;51.99;99312.25;5316426;32;34185;-69
2022/09/17 13:41:18;;;;;;;;;;;;;;;15.12;53.03;99299.63;5338195;32;33217;-74
2022/09/17 13:44:20;;;;;;;;;;;;;;;15.67;51.87;99289.34;5321750;32;45380;-71
2022/09/17 13:47:25;;;;;;;;;;;;;;;15.30;52.55;99285.97;5341107;32;33633;-68
2022/09/17 13:50:39;;;;;;;;;;;;;;;15.49;51.99;99286.25;5324224;32;33699;-69
2022/09/17 13:53:41;;;;;;;;;;;;;;;15.98;51.22;99295.75;5314663;32;33335;-71
2022/09/17 13:56:50;;;;;;;;;;;;;;;15.64;52.14;99303.66;5322245;32;36006;-69
2022/09/17 13:59:55;;;;;;;;;;;;;;;15.55;52.76;99298.19;5311099;32;46696;-73
2022/09/17 14:03:02;;;;;;;;;;;;;;;15.69;52.44;99282.94;5339393;32;34578;-67
2022/09/17 14:06:04;;;;;;;;;;;;;;;15.60;52.21;99294.25;5311185;32;32914;-70
2022/09/17 14:09:26;;;;;;;;;;;;;;;15.12;53.41;99306.72;5338748;32;32997;-69
2022/09/17 14:12:49;;;;;;;;;;;;;;;15.81;52.40;99309.47;5330418;32;34276;-72
2022/09/17 14:15:55;;;;;;;;;;;;;;;15.74;51.89;99311.75;5300425;32;44637;-69
2022/09/17 14:19:12;;;;;;;;;;;;;;;16.53;49.91;99310.72;5339500;32;33641;-71
2022/09/17 14:22:14;;;;;;;;;;;;;;;15.93;51.63;99312.00;5306569;32;36241;-70
2022/09/17 14:25:25;;;;;;;;;;;;;;;15.90;50.83;99314.87;5334811;32;33375;-68
2022/09/17 14:28:26;;;;;;;;;;;;;;;15.50;52.65;99317.06;5331260;32;33596;-72
2022/09/17 14:31:33;;;;;;;;;;;;;;;14.85;54.30;99317.56;5325073;32;34490;-72
2022/09/17 14:34:35;;;;;;;;;;;;;;;16.05;51.38;99326.09;5327576;32;33427;-71
2022/09/17 14:37:36;;;;;;;;;;;;;;;15.99;51.06;99326.56;5322109;32;34112;-68
2022/09/17 14:40:45;;;;;;;;;;;;;;;15.41;52.29;99349.56;5340991;32;32933;-71
2022/09/17 14:43:55;;;;;;;;;;;;;;;15.33;52.64;99350.16;5306861;32;46926;-72
2022/09/17 14:47:01;;;;;;;;;;;;;;;14.95;53.15;99355.63;5311641;32;34653;-73
2022/09/17 14:50:18;;;;;;;;;;;;;;;15.45;52.02;99362.44;5327423;32;32970;-70
2022/09/17 14:53:20;;;;;;;;;;;;;;;14.79;53.00;99355.91;5320295;32;44786;-69
2022/09/17 14:56:21;;;;;;;;;;;;;;;15.37;51.91;99350.75;5341598;32;33528;-71
2022/09/17 14:59:29;;;;;;;;;;;;;;;15.10;52.86;99343.91;5323852;32;34221;-72
2022/09/17 15:02:31;;;;;;;;;;;;;;;15.59;51.64;99332.28;5331419;32;33475;-71
2022/09/17 15:05:37;;;;;;;;;;;;;;;15.97;50.06;99331.13;5333682;32;34092;-68
2022/09/17 15:08:40;;;;;;;;;;;;;;;14.89;52.43;99338.41;5321563;32;33206;-71
2022/09/17 15:11:42;;;;;;;;;;;;;;;14.89;52.38;99348.16;5326506;32;33396;-69
2022/09/17 15:14:44;;;;;;;;;;;;;;;14.61;52.77;99347.47;5295424;32;44178;-72
2022/09/17 15:17:47;;;;;;;;;;;;;;;14.47;53.13;99339.72;5315722;32;33364;-69
2022/09/17 15:20:48;;;;;;;;;;;;;;;15.67;50.00;99351.09;5309445;32;34764;-70
2022/09/17 15:23:51;;;;;;;;;;;;;;;16.05;49.01;99335.84;5311935;32;34490;-69
2022/09/17 15:26:53;;;;;;;;;;;;;;;15.06;51.65;99341.59;5333450;32;33838;-68
2022/09/17 15:29:59;;;;;;;;;;;;;;;15.25;50.78;99328.69;5324538;32;33486;-70
2022/09/17 15:33:01;;;;;;;;;;;;;;;15.00;51.31;99321.72;5338444;32;33507;-72
2022/09/17 15:36:08;;;;;;;;;;;;;;;14.61;52.50;99321.03;5309130;32;33005;-73
2022/09/17 15:39:29;;;;;;;;;;;;;;;15.16;51.43;99313.50;5339434;32;33490;-68
2022/09/17 15:42:31;;;;;;;;;;;;;;;14.86;53.16;99313.97;5325163;32;33582;-68
2022/09/17 15:45:37;;;;;;;;;;;;;;;15.45;52.67;99306.81;5309221;32;33882;-70
2022/09/17 15:48:40;;;;;;;;;;;;;;;14.61;53.77;99314.91;5326091;32;32997;-69
2022/09/17 15:51:42;;;;;;;;;;;;;;;15.37;53.63;99308.37;5322968;32;33807;-69
2022/09/17 15:54:43;;;;;;;;;;;;;;;15.53;52.45;99302.78;5340399;32;37026;-68
2022/09/17 15:57:45;;;;;;;;;;;;;;;14.05;55.97;99286.28;5324483;32;34466;-71
2022/09/17 16:00:48;;;;;;;;;;;;;;;14.46;55.50;99279.00;5320894;32;33133;-68
2022/09/17 16:04:02;;;;;;;;;;;;;;;15.21;54.03;99292.00;5319368;32;33475;-72
2022/09/17 16:07:07;;;;;;;;;;;;;;;14.82;54.66;99296.66;5309232;32;33796;-68